createdAt,value
2018-06-03T00:02:22.077Z,70.40
2018-06-03T00:04:50.880Z,70.70
2018-06-03T00:07:19.764Z,72.30
2018-06-03T00:09:48.690Z,72.50
2018-06-03T00:12:17.227Z,72.30
2018-06-03T00:14:45.709Z,71.60
2018-06-03T00:17:14.244Z,71.10
2018-06-03T00:19:43.077Z,70.60
2018-06-03T00:22:37.353Z,70.60
2018-06-03T00:25:06.956Z,69.30
2018-06-03T00:27:35.784Z,69.30
2018-06-03T00:30:04.594Z,68.90
2018-06-03T00:35:58.158Z,73.60
2018-06-03T00:38:31.853Z,73.60
2018-06-03T00:41:07.300Z,75.50
2018-06-03T00:43:44.486Z,76.40
2018-06-03T00:46:17.132Z,76.80
2018-06-03T00:48:54.057Z,76.80
2018-06-03T00:51:31.036Z,77.70
2018-06-03T00:54:10.827Z,77.10
2018-06-03T00:56:55.942Z,75.60
2018-06-03T00:59:28.881Z,73.40
2018-06-03T01:02:02.466Z,73.00
2018-06-03T01:04:36.545Z,72.90
2018-06-03T01:07:14.754Z,73.40
2018-06-03T01:09:48.439Z,73.40
2018-06-03T01:12:21.965Z,72.00
2018-06-03T01:14:59.763Z,72.60
2018-06-03T01:17:34.579Z,72.60
2018-06-03T01:20:15.672Z,71.40
2018-06-03T01:22:51.233Z,70.80
2018-06-03T01:28:06.202Z,71.50
2018-06-03T01:30:43.959Z,70.90
2018-06-03T01:33:15.427Z,70.80
2018-06-03T01:35:52.038Z,70.30
2018-06-03T01:38:27.672Z,69.70
2018-06-03T01:41:03.145Z,69.40
2018-06-03T01:43:43.471Z,69.10
2018-06-03T01:46:18.901Z,69.80
2018-06-03T01:48:53.538Z,71.30
2018-06-03T01:51:27.916Z,70.70
2018-06-03T01:54:00.385Z,71.30
2018-06-03T01:56:36.717Z,70.20
2018-06-03T01:59:09.148Z,70.50
2018-06-03T02:01:44.253Z,70.30
2018-06-03T02:04:21.372Z,69.50
2018-06-03T02:06:58.518Z,69.00
2018-06-03T02:09:35.197Z,68.50
2018-06-03T02:12:10.292Z,69.00
2018-06-03T02:14:49.448Z,68.80
2018-06-03T02:17:24.122Z,69.70
2018-06-03T02:19:59.721Z,68.60
2018-06-03T02:22:34.608Z,68.60
2018-06-03T02:25:08.899Z,68.60
2018-06-03T02:27:46.107Z,70.30
2018-06-03T02:30:24.189Z,69.50
2018-06-03T02:32:56.636Z,69.40
2018-06-03T02:35:35.997Z,69.40
2018-06-03T02:38:16.405Z,69.00
2018-06-03T02:40:53.455Z,69.10
2018-06-03T02:43:28.291Z,69.40
2018-06-03T02:48:53.902Z,70.00
2018-06-03T02:51:30.736Z,69.80
2018-06-03T02:54:07.760Z,71.30
2018-06-03T02:56:45.408Z,71.60
2018-06-03T02:59:21.627Z,70.10
2018-06-03T03:01:55.467Z,70.00
2018-06-03T03:04:33.456Z,69.40
2018-06-03T03:07:07.540Z,69.40
2018-06-03T03:09:42.062Z,68.50
2018-06-03T03:12:19.032Z,69.20
2018-06-03T03:14:55.938Z,69.40
2018-06-03T03:17:31.146Z,69.40
2018-06-03T03:20:07.292Z,70.40
2018-06-03T03:22:36.314Z,70.10
2018-06-03T03:25:05.102Z,71.00
2018-06-03T03:27:33.841Z,71.80
2018-06-03T03:30:02.656Z,72.00
2018-06-03T03:32:31.465Z,71.60
2018-06-03T03:35:00.228Z,71.90
2018-06-03T03:37:29.032Z,71.20
2018-06-03T03:39:59.112Z,71.40
2018-06-03T03:42:27.884Z,71.00
2018-06-03T03:44:57.486Z,71.60
2018-06-03T03:47:26.282Z,70.60
2018-06-03T03:49:56.039Z,70.10
2018-06-03T03:52:25.450Z,70.10
2018-06-03T03:54:54.613Z,72.70
2018-06-03T03:57:24.220Z,73.40
2018-06-03T03:59:52.985Z,73.30
2018-06-03T04:02:21.985Z,73.30
2018-06-03T04:04:50.760Z,71.30
2018-06-03T04:07:21.446Z,69.70
2018-06-03T04:09:50.899Z,69.70
2018-06-03T04:12:19.709Z,70.80
2018-06-03T04:14:48.541Z,70.40
2018-06-03T04:17:17.368Z,68.10
2018-06-03T04:19:46.166Z,68.80
2018-06-03T04:22:52.748Z,68.50
2018-06-03T04:25:22.381Z,69.60
2018-06-03T04:27:52.261Z,70.60
2018-06-03T04:30:22.420Z,70.10
2018-06-03T04:32:59.353Z,71.80
2018-06-03T04:35:29.213Z,72.60
2018-06-03T04:37:58.952Z,72.30
2018-06-03T04:40:28.695Z,73.10
2018-06-03T04:42:58.467Z,73.10
2018-06-03T04:45:28.304Z,72.70
2018-06-03T04:48:00.418Z,71.10
2018-06-03T04:50:30.594Z,69.70
2018-06-03T04:53:00.664Z,71.80
2018-06-03T04:55:30.418Z,70.20
2018-06-03T04:58:00.385Z,69.50
2018-06-03T05:00:30.267Z,69.40
2018-06-03T05:02:59.978Z,69.40
2018-06-03T05:05:29.841Z,70.40
2018-06-03T05:08:01.910Z,70.90
2018-06-03T05:10:32.006Z,70.50
2018-06-03T05:13:01.779Z,70.20
2018-06-03T05:15:31.732Z,71.50
2018-06-03T05:18:01.631Z,70.90
2018-06-03T05:20:31.425Z,71.00
2018-06-03T05:23:01.321Z,71.20
2018-06-03T05:25:31.290Z,70.80
2018-06-03T05:28:01.239Z,70.00
2018-06-03T05:30:31.201Z,70.20
2018-06-03T05:33:01.446Z,70.00
2018-06-03T05:35:31.205Z,70.00
2018-06-03T05:38:01.017Z,70.00
2018-06-03T05:40:30.968Z,69.50
2018-06-03T05:43:00.755Z,68.40
2018-06-03T05:45:30.624Z,68.20
2018-06-03T05:48:00.484Z,69.30
2018-06-03T05:50:30.693Z,68.70
2018-06-03T05:53:01.057Z,69.20
2018-06-03T05:55:31.988Z,68.30
2018-06-03T05:58:01.808Z,68.50
2018-06-03T06:00:31.635Z,67.80
2018-06-03T06:05:32.198Z,70.10
2018-06-03T06:08:03.623Z,68.50
2018-06-03T06:10:33.637Z,68.10
2018-06-03T06:13:03.662Z,68.90
2018-06-03T06:15:34.547Z,68.70
2018-06-03T06:18:04.497Z,68.40
2018-06-03T06:20:34.515Z,66.80
2018-06-03T06:23:04.593Z,67.20
2018-06-03T06:25:34.719Z,65.20
2018-06-03T06:28:04.737Z,67.90
2018-06-03T06:30:34.432Z,66.80
2018-06-03T06:33:04.397Z,67.60
2018-06-03T06:35:34.318Z,66.90
2018-06-03T06:38:04.224Z,66.70
2018-06-03T06:40:34.150Z,65.40
2018-06-03T06:43:04.236Z,65.00
2018-06-03T06:45:34.672Z,64.20
2018-06-03T06:48:04.504Z,64.50
2018-06-03T06:50:36.095Z,64.40
2018-06-03T06:53:06.397Z,65.20
2018-06-03T06:55:36.294Z,65.60
2018-06-03T06:58:06.395Z,65.40
2018-06-03T07:00:36.317Z,65.30
2018-06-03T07:03:06.142Z,63.40
2018-06-03T07:05:36.000Z,63.70
2018-06-03T07:10:35.761Z,61.90
2018-06-03T07:13:10.055Z,62.20
2018-06-03T07:15:41.114Z,62.30
2018-06-03T07:18:10.901Z,61.60
2018-06-03T07:20:40.579Z,61.60
2018-06-03T07:23:10.568Z,61.80
2018-06-03T07:25:42.730Z,62.90
2018-06-03T07:28:13.420Z,62.10
2018-06-03T07:30:43.712Z,63.40
2018-06-03T07:33:14.777Z,62.30
2018-06-03T07:35:44.894Z,63.20
2018-06-03T07:38:14.768Z,62.60
2018-06-03T07:40:45.244Z,61.10
2018-06-03T07:43:15.069Z,62.20
2018-06-03T07:45:45.050Z,61.60
2018-06-03T07:48:14.961Z,61.40
2018-06-03T07:50:45.553Z,60.70
2018-06-03T07:53:16.288Z,61.10
2018-06-03T07:55:46.146Z,62.00
2018-06-03T07:58:16.501Z,62.40
2018-06-03T08:00:46.489Z,62.00
2018-06-03T08:03:16.305Z,61.50
2018-06-03T08:05:46.066Z,60.90
2018-06-03T08:08:17.994Z,59.20
2018-06-03T08:10:49.481Z,60.40
2018-06-03T08:13:19.415Z,59.40
2018-06-03T08:15:51.230Z,59.30
2018-06-03T08:18:21.448Z,59.10
2018-06-03T08:23:27.932Z,58.80
2018-06-03T08:25:57.929Z,58.90
2018-06-03T08:28:27.765Z,59.50
2018-06-03T08:30:57.538Z,58.20
2018-06-03T08:33:27.452Z,59.60
2018-06-03T08:35:58.188Z,59.90
2018-06-03T08:38:28.790Z,61.20
2018-06-03T08:43:28.244Z,59.10
2018-06-03T08:45:58.032Z,60.20
2018-06-03T08:48:28.250Z,59.60
2018-06-03T08:50:58.036Z,58.20
2018-06-03T08:53:28.098Z,58.70
2018-06-03T08:55:57.953Z,58.30
2018-06-03T08:58:29.325Z,57.80
2018-06-03T09:00:59.283Z,57.30
2018-06-03T09:05:58.496Z,59.20
2018-06-03T09:08:29.596Z,58.90
2018-06-03T09:13:28.988Z,59.10
2018-06-03T09:15:58.886Z,57.10
2018-06-03T09:18:29.560Z,57.90
2018-06-03T09:20:59.741Z,58.20
2018-06-03T09:23:29.851Z,58.50
2018-06-03T09:28:29.237Z,57.60
2018-06-03T09:33:33.786Z,57.10
2018-06-03T09:36:03.855Z,55.30
2018-06-03T09:38:34.018Z,56.50
2018-06-03T09:41:04.301Z,56.60
2018-06-03T09:48:38.866Z,56.30
2018-06-03T09:51:08.642Z,53.80
2018-06-03T09:56:08.296Z,53.80
2018-06-03T09:58:38.139Z,54.70
2018-06-03T10:01:08.324Z,50.80
2018-06-03T10:03:38.260Z,48.20
2018-06-03T10:06:08.304Z,50.40
2018-06-03T10:08:44.487Z,49.50
2018-06-03T10:11:14.440Z,50.80
2018-06-03T10:13:44.370Z,48.50
2018-06-03T10:16:14.550Z,47.10
2018-06-03T10:18:45.781Z,47.60
2018-06-03T10:23:45.435Z,42.60
2018-06-03T10:26:16.222Z,45.20
2018-06-03T10:28:58.924Z,45.50
2018-06-03T10:31:29.917Z,44.10
2018-06-03T10:34:01.070Z,45.40
2018-06-03T10:36:31.205Z,41.60
2018-06-03T10:39:01.012Z,45.50
2018-06-03T10:41:31.041Z,41.70
2018-06-03T10:44:00.963Z,42.00
2018-06-03T10:46:31.807Z,42.20
2018-06-03T10:49:02.122Z,42.70
2018-06-03T10:51:31.917Z,41.40
2018-06-03T10:54:01.681Z,42.20
2018-06-03T10:56:31.609Z,41.60
2018-06-03T10:59:01.481Z,42.00
2018-06-03T11:01:31.293Z,41.30
2018-06-03T11:04:01.159Z,41.10
2018-06-03T11:06:31.186Z,42.40
2018-06-03T11:09:01.170Z,41.80
2018-06-03T11:11:31.074Z,44.80
2018-06-03T11:14:01.432Z,45.80
2018-06-03T11:16:31.880Z,43.20
2018-06-03T11:19:01.874Z,43.10
2018-06-03T11:21:32.090Z,42.10
2018-06-03T11:24:01.957Z,41.60
2018-06-03T11:26:33.031Z,41.40
2018-06-03T11:29:03.180Z,42.30
2018-06-03T11:31:32.931Z,41.60
2018-06-03T11:36:32.443Z,42.20
2018-06-03T11:39:02.275Z,41.60
2018-06-03T11:41:32.420Z,41.30
2018-06-03T11:44:02.895Z,42.80
2018-06-03T11:49:02.382Z,42.60
2018-06-03T11:51:32.488Z,41.50
2018-06-03T11:54:02.475Z,42.80
2018-06-03T11:56:43.185Z,43.70
2018-06-03T11:59:22.742Z,41.90
2018-06-03T12:01:52.900Z,44.50
2018-06-03T12:04:22.674Z,42.30
2018-06-03T12:06:53.145Z,40.40
2018-06-03T12:09:23.322Z,39.90
2018-06-03T12:11:54.173Z,39.70
2018-06-03T12:14:25.890Z,40.30
2018-06-03T12:16:56.065Z,40.20
2018-06-03T12:19:27.233Z,41.10
2018-06-03T12:22:00.329Z,39.50
2018-06-03T12:24:30.105Z,41.00
2018-06-03T12:26:59.920Z,40.20
2018-06-03T12:29:29.736Z,41.30
2018-06-03T12:32:00.278Z,41.10
2018-06-03T12:36:59.850Z,38.80
2018-06-03T12:39:29.638Z,39.30
2018-06-03T12:41:59.397Z,40.10
2018-06-03T12:44:29.386Z,40.90
2018-06-03T12:46:59.354Z,40.80
2018-06-03T12:49:29.180Z,42.70
2018-06-03T12:51:59.177Z,40.90
2018-06-03T12:56:58.483Z,38.50
2018-06-03T12:59:28.248Z,38.70
2018-06-03T13:01:58.075Z,39.50
2018-06-03T13:04:27.879Z,39.30
2018-06-03T13:06:58.604Z,38.90
2018-06-03T13:11:58.534Z,40.00
2018-06-03T13:14:28.296Z,40.30
2018-06-03T13:16:58.365Z,40.30
2018-06-03T13:19:28.167Z,38.90
2018-06-03T13:21:57.860Z,38.00
2018-06-03T13:24:27.816Z,38.30
2018-06-03T13:26:57.602Z,37.50
2018-06-03T13:29:27.692Z,37.90
2018-06-03T13:31:57.694Z,37.00
2018-06-03T13:34:27.542Z,38.60
2018-06-03T13:36:57.485Z,39.30
2018-06-03T13:39:27.362Z,42.20
2018-06-03T13:41:57.106Z,44.50
2018-06-03T13:44:27.150Z,45.50
2018-06-03T13:46:57.073Z,45.00
2018-06-03T13:49:27.271Z,44.80
2018-06-03T13:51:57.099Z,45.00
2018-06-03T13:54:27.064Z,46.10
2018-06-03T13:56:57.491Z,48.30
2018-06-03T13:59:27.436Z,48.00
2018-06-03T14:01:57.803Z,48.60
2018-06-03T14:04:27.755Z,48.80
2018-06-03T14:06:57.837Z,49.70
2018-06-03T14:09:27.701Z,49.50
2018-06-03T14:11:57.688Z,49.50
2018-06-03T14:14:27.756Z,51.40
2018-06-03T14:16:57.807Z,51.80
2018-06-03T14:19:28.845Z,51.40
2018-06-03T14:21:58.957Z,52.50
2018-06-03T14:24:31.796Z,51.20
2018-06-03T14:27:01.908Z,51.20
2018-06-03T14:32:01.461Z,48.00
2018-06-03T14:34:31.313Z,47.30
2018-06-03T14:37:01.165Z,47.90
2018-06-03T14:39:32.183Z,48.90
2018-06-03T14:42:02.816Z,48.70
2018-06-03T14:44:32.688Z,47.90
2018-06-03T14:47:02.702Z,48.40
2018-06-03T14:49:32.734Z,47.00
2018-06-03T14:52:02.570Z,48.30
2018-06-03T14:54:32.485Z,47.40
2018-06-03T14:57:03.134Z,46.40
2018-06-03T14:59:32.810Z,46.80
2018-06-03T15:02:02.788Z,46.10
2018-06-03T15:04:36.410Z,46.80
2018-06-03T15:07:06.261Z,46.10
2018-06-03T15:09:36.121Z,47.30
2018-06-03T15:12:06.173Z,47.50
2018-06-03T15:17:05.513Z,48.50
2018-06-03T15:19:35.449Z,48.10
2018-06-03T15:22:05.302Z,47.70
2018-06-03T15:24:35.194Z,48.20
2018-06-03T15:27:05.241Z,48.70
2018-06-03T15:29:35.083Z,49.30
2018-06-03T15:32:05.110Z,48.30
2018-06-03T15:34:34.957Z,47.90
2018-06-03T15:37:04.922Z,49.00
2018-06-03T15:39:34.935Z,48.00
2018-06-03T15:42:04.813Z,47.60
2018-06-03T15:44:34.802Z,48.60
2018-06-03T15:47:04.720Z,48.20
2018-06-03T15:49:34.996Z,48.30
2018-06-03T15:52:04.984Z,48.90
2018-06-03T15:54:34.828Z,47.60
2018-06-03T15:59:34.448Z,47.30
2018-06-03T16:02:04.393Z,47.90
2018-06-03T16:07:04.183Z,49.30
2018-06-03T16:09:33.929Z,49.70
2018-06-03T16:14:33.358Z,49.40
2018-06-03T16:17:04.566Z,49.40
2018-06-03T16:19:34.414Z,49.50
2018-06-03T16:24:34.732Z,50.60
2018-06-03T16:27:04.515Z,50.80
2018-06-03T16:29:34.324Z,50.30
2018-06-03T16:32:04.085Z,50.80
2018-06-03T16:34:33.846Z,52.00
2018-06-03T16:37:03.618Z,54.20
2018-06-03T16:39:33.341Z,55.80
2018-06-03T16:42:03.157Z,57.40
2018-06-03T16:44:32.918Z,58.30
2018-06-03T16:47:02.948Z,57.60
2018-06-03T16:49:33.789Z,56.70
2018-06-03T16:52:03.547Z,56.50
2018-06-03T16:54:33.399Z,57.00
2018-06-03T16:57:03.108Z,57.00
2018-06-03T16:59:33.347Z,57.20
2018-06-03T17:02:03.824Z,56.70
2018-06-03T17:04:33.999Z,57.90
2018-06-03T17:07:03.966Z,58.80
2018-06-03T17:12:15.600Z,59.70
2018-06-03T17:14:45.420Z,60.70
2018-06-03T17:17:15.265Z,62.70
2018-06-03T17:19:45.156Z,62.30
2018-06-03T17:22:14.864Z,63.80
2018-06-03T17:24:44.755Z,63.40
2018-06-03T17:27:15.145Z,63.40
2018-06-03T17:29:44.885Z,64.10
2018-06-03T17:32:15.011Z,64.50
2018-06-03T17:34:44.962Z,63.70
2018-06-03T17:37:15.245Z,64.00
2018-06-03T17:39:45.372Z,64.00
2018-06-03T17:42:15.399Z,63.40
2018-06-03T17:44:45.376Z,64.10
2018-06-03T17:47:15.222Z,64.50
2018-06-03T17:49:45.034Z,65.50
2018-06-03T17:52:15.064Z,66.20
2018-06-03T17:54:45.025Z,64.70
2018-06-03T17:57:18.493Z,62.90
2018-06-03T17:59:49.093Z,62.80
2018-06-03T18:02:19.160Z,63.60
2018-06-03T18:04:49.067Z,63.40
2018-06-03T18:07:19.679Z,65.20
2018-06-03T18:09:49.661Z,65.90
2018-06-03T18:12:20.115Z,64.60
2018-06-03T18:14:50.253Z,63.70
2018-06-03T18:17:20.405Z,63.60
2018-06-03T18:19:50.691Z,64.70
2018-06-03T18:22:20.993Z,65.10
2018-06-03T18:24:51.379Z,65.50
2018-06-03T18:27:21.259Z,65.60
2018-06-03T18:29:51.089Z,65.30
2018-06-03T18:32:21.137Z,64.80
2018-06-03T18:34:51.027Z,65.40
2018-06-03T18:37:21.160Z,65.40
2018-06-03T18:39:58.179Z,66.20
2018-06-03T18:42:28.336Z,67.00
2018-06-03T18:44:58.409Z,67.50
2018-06-03T18:47:28.399Z,68.60
2018-06-03T18:49:58.151Z,68.20
2018-06-03T18:57:33.744Z,66.50
2018-06-03T19:00:03.498Z,65.40
2018-06-03T19:02:33.720Z,65.20
2018-06-03T19:05:03.581Z,64.90
2018-06-03T19:07:33.351Z,65.10
2018-06-03T19:10:03.175Z,65.70
2018-06-03T19:12:36.176Z,65.90
2018-06-03T19:15:06.021Z,65.60
2018-06-03T19:17:35.751Z,65.50
2018-06-03T19:20:05.674Z,65.60
2018-06-03T19:22:36.496Z,65.20
2018-06-03T19:25:06.790Z,65.00
2018-06-03T19:27:36.730Z,65.50
2018-06-03T19:30:06.643Z,66.30
2018-06-03T19:32:36.591Z,65.00
2018-06-03T19:35:06.526Z,64.70
2018-06-03T19:40:12.207Z,64.70
2018-06-03T19:42:41.957Z,64.90
2018-06-03T19:45:11.619Z,65.00
2018-06-03T19:47:41.582Z,65.60
2018-06-03T19:50:11.436Z,66.20
2018-06-03T19:52:41.772Z,66.50
2018-06-03T19:55:11.519Z,66.20
2018-06-03T19:57:41.255Z,65.70
2018-06-03T20:00:11.303Z,65.60
2018-06-03T20:02:41.071Z,65.90
2018-06-03T20:05:11.338Z,65.50
2018-06-03T20:07:41.024Z,65.90
2018-06-03T20:10:10.934Z,66.10
2018-06-03T20:12:40.924Z,66.10
2018-06-03T20:15:12.834Z,66.20
2018-06-03T20:17:42.718Z,66.10
2018-06-03T20:20:12.474Z,66.30
2018-06-03T20:22:43.073Z,66.20
2018-06-03T20:25:13.142Z,66.10
2018-06-03T20:27:42.959Z,65.90
2018-06-03T20:30:12.844Z,65.90
2018-06-03T20:32:43.154Z,66.20
2018-06-03T20:35:12.961Z,66.10
2018-06-03T20:37:50.433Z,66.30
2018-06-03T20:40:23.972Z,66.20
2018-06-03T20:42:54.069Z,66.50
2018-06-03T20:45:24.757Z,65.90
2018-06-03T20:47:58.616Z,66.50
2018-06-03T20:50:28.644Z,67.50
2018-06-03T20:52:58.746Z,68.70
2018-06-03T20:55:29.018Z,68.40
2018-06-03T20:57:59.164Z,67.70
2018-06-03T21:00:29.527Z,68.10
2018-06-03T21:02:59.511Z,67.30
2018-06-03T21:05:30.017Z,67.30
2018-06-03T21:07:59.806Z,67.70
2018-06-03T21:10:30.001Z,68.20
2018-06-03T21:13:00.302Z,69.80
2018-06-03T21:15:30.138Z,69.20
2018-06-03T21:18:00.010Z,69.40
2018-06-03T21:20:30.028Z,69.60
2018-06-03T21:23:00.004Z,69.00
2018-06-03T21:25:30.189Z,68.40
2018-06-03T21:28:00.693Z,68.20
2018-06-03T21:33:00.173Z,67.60
2018-06-03T21:35:30.750Z,68.10
2018-06-03T21:38:01.607Z,68.80
2018-06-03T21:40:31.901Z,68.60
2018-06-03T21:45:31.653Z,68.70
2018-06-03T21:48:01.666Z,67.70
2018-06-03T21:50:31.705Z,69.00
2018-06-03T21:53:01.843Z,68.20
2018-06-03T21:55:31.857Z,68.60
2018-06-03T21:58:02.022Z,69.60
2018-06-03T22:00:32.041Z,69.50
2018-06-03T22:03:02.374Z,68.50
2018-06-03T22:05:32.333Z,68.10
2018-06-03T22:08:02.482Z,68.80
2018-06-03T22:10:33.078Z,69.60
2018-06-03T22:13:03.064Z,69.00
2018-06-03T22:15:33.118Z,68.10
2018-06-03T22:18:03.482Z,67.70
2018-06-03T22:20:33.386Z,67.40
2018-06-03T22:23:09.731Z,68.50
2018-06-03T22:25:39.673Z,68.30
2018-06-03T22:28:09.758Z,68.60
2018-06-03T22:30:40.135Z,69.20
2018-06-03T22:33:10.025Z,69.50
2018-06-03T22:35:39.971Z,69.40
2018-06-03T22:38:10.216Z,68.60
2018-06-03T22:43:09.694Z,67.60
2018-06-03T22:45:39.615Z,67.30
2018-06-03T22:48:09.723Z,67.10
2018-06-03T22:50:40.205Z,67.70
2018-06-03T22:53:10.242Z,68.00
2018-06-03T22:55:40.198Z,68.20
2018-06-03T22:58:10.374Z,68.00
2018-06-03T23:00:40.583Z,68.20
2018-06-03T23:03:14.896Z,67.60
2018-06-03T23:05:44.906Z,68.60
2018-06-03T23:08:15.087Z,69.50
2018-06-03T23:10:45.146Z,68.90
2018-06-03T23:15:58.854Z,68.70
2018-06-03T23:18:28.802Z,68.70
2018-06-03T23:20:58.968Z,69.10
2018-06-03T23:23:29.044Z,68.20
2018-06-03T23:26:02.273Z,68.80
2018-06-03T23:28:32.269Z,68.50
2018-06-03T23:33:38.141Z,68.30
2018-06-03T23:36:08.124Z,68.10
2018-06-03T23:38:38.102Z,67.50
2018-06-03T23:41:08.240Z,68.00
2018-06-03T23:43:38.247Z,68.10
2018-06-03T23:46:08.171Z,68.70
2018-06-03T23:48:38.135Z,68.40
2018-06-03T23:53:37.665Z,68.10
2018-06-03T23:56:07.604Z,68.10
2018-06-03T23:58:37.794Z,68.20
